Terminal Aerodrome Forecast
Issued by NWS

Current Version | Previous Version | Text Only | Print | Product List | Glossary On
Versions: 1 2 3 4 5 6 7 8 9 10 11 12 13 14 15
000
FTUS44 KBMX 290721 AAA
TAFANB
TAF AMD
KANB 290721Z 2907/3006 23004KT P6SM SCT020
     FM291500 25006KT P6SM VCSH BKN035
     FM291800 25008KT P6SM VCTS BKN050CB=

USA.gov is the U.S. government's official web portal to all federal, state and local government web resources and services.